sensor_id;sensor_type;location;lat;lon;timestamp;temperature;humidity
7900;DHT22;3995;50.856;4.404;2024-02-15T00:02:27;15.00;81.00
7900;DHT22;3995;50.856;4.404;2024-02-15T00:04:56;15.00;80.90
7900;DHT22;3995;50.856;4.404;2024-02-15T00:07:23;15.00;80.90
7900;DHT22;3995;50.856;4.404;2024-02-15T00:09:50;15.00;80.90
7900;DHT22;3995;50.856;4.404;2024-02-15T00:12:18;15.00;80.80
7900;DHT22;3995;50.856;4.404;2024-02-15T00:14:46;15.00;80.80
7900;DHT22;3995;50.856;4.404;2024-02-15T00:17:14;15.00;80.80
7900;DHT22;3995;50.856;4.404;2024-02-15T00:19:41;15.00;80.80
7900;DHT22;3995;50.856;4.404;2024-02-15T00:22:10;15.00;80.80
7900;DHT22;3995;50.856;4.404;2024-02-15T00:24:37;15.00;80.80
7900;DHT22;3995;50.856;4.404;2024-02-15T00:27:04;15.00;80.80
7900;DHT22;3995;50.856;4.404;2024-02-15T00:29:32;15.00;80.80
7900;DHT22;3995;50.856;4.404;2024-02-15T00:32:00;15.00;80.80
7900;DHT22;3995;50.856;4.404;2024-02-15T00:34:29;15.00;81.40
7900;DHT22;3995;50.856;4.404;2024-02-15T00:36:56;15.00;80.70
7900;DHT22;3995;50.856;4.404;2024-02-15T00:39:25;15.00;80.70
7900;DHT22;3995;50.856;4.404;2024-02-15T00:41:52;15.00;80.60
7900;DHT22;3995;50.856;4.404;2024-02-15T00:44:21;15.00;80.60
7900;DHT22;3995;50.856;4.404;2024-02-15T00:46:48;15.00;80.60
7900;DHT22;3995;50.856;4.404;2024-02-15T00:49:15;15.00;80.50
7900;DHT22;3995;50.856;4.404;2024-02-15T00:51:44;15.00;80.40
7900;DHT22;3995;50.856;4.404;2024-02-15T00:54:11;15.00;80.40
7900;DHT22;3995;50.856;4.404;2024-02-15T00:56:40;15.00;80.90
7900;DHT22;3995;50.856;4.404;2024-02-15T00:59:07;15.00;80.20
7900;DHT22;3995;50.856;4.404;2024-02-15T01:01:36;15.00;80.20
7900;DHT22;3995;50.856;4.404;2024-02-15T01:04:04;15.00;80.20
7900;DHT22;3995;50.856;4.404;2024-02-15T01:06:31;15.00;80.10
7900;DHT22;3995;50.856;4.404;2024-02-15T01:08:59;15.00;80.00
7900;DHT22;3995;50.856;4.404;2024-02-15T01:11:28;15.00;79.90
7900;DHT22;3995;50.856;4.404;2024-02-15T01:13:59;15.00;79.90
7900;DHT22;3995;50.856;4.404;2024-02-15T01:16:26;15.00;79.80
7900;DHT22;3995;50.856;4.404;2024-02-15T01:18:53;15.00;79.80
7900;DHT22;3995;50.856;4.404;2024-02-15T01:21:21;15.00;79.80
7900;DHT22;3995;50.856;4.404;2024-02-15T01:23:49;15.00;79.70
7900;DHT22;3995;50.856;4.404;2024-02-15T01:26:16;15.00;79.70
7900;DHT22;3995;50.856;4.404;2024-02-15T01:28:44;15.00;79.70
7900;DHT22;3995;50.856;4.404;2024-02-15T01:31:12;15.00;79.70
7900;DHT22;3995;50.856;4.404;2024-02-15T01:33:43;15.00;79.60
7900;DHT22;3995;50.856;4.404;2024-02-15T01:36:14;15.00;79.60
7900;DHT22;3995;50.856;4.404;2024-02-15T01:38:42;15.00;79.50
7900;DHT22;3995;50.856;4.404;2024-02-15T01:41:09;15.00;79.50
7900;DHT22;3995;50.856;4.404;2024-02-15T01:43:37;15.00;79.40
7900;DHT22;3995;50.856;4.404;2024-02-15T01:46:08;15.00;79.40
7900;DHT22;3995;50.856;4.404;2024-02-15T01:48:37;15.00;79.30
7900;DHT22;3995;50.856;4.404;2024-02-15T01:51:07;15.00;79.30
7900;DHT22;3995;50.856;4.404;2024-02-15T01:53:36;15.00;79.30
7900;DHT22;3995;50.856;4.404;2024-02-15T01:56:04;15.00;79.20
7900;DHT22;3995;50.856;4.404;2024-02-15T01:58:32;15.00;79.20
7900;DHT22;3995;50.856;4.404;2024-02-15T02:01:01;15.00;79.20
7900;DHT22;3995;50.856;4.404;2024-02-15T02:03:29;15.00;79.20
7900;DHT22;3995;50.856;4.404;2024-02-15T02:05:57;15.00;79.20
7900;DHT22;3995;50.856;4.404;2024-02-15T02:08:25;15.00;79.10
7900;DHT22;3995;50.856;4.404;2024-02-15T02:10:53;15.00;79.10
7900;DHT22;3995;50.856;4.404;2024-02-15T02:13:20;15.00;79.10
7900;DHT22;3995;50.856;4.404;2024-02-15T02:15:48;15.00;79.00
7900;DHT22;3995;50.856;4.404;2024-02-15T02:18:15;15.00;79.00
7900;DHT22;3995;50.856;4.404;2024-02-15T02:20:42;15.00;78.90
7900;DHT22;3995;50.856;4.404;2024-02-15T02:23:16;15.00;78.90
7900;DHT22;3995;50.856;4.404;2024-02-15T02:25:47;15.00;78.90
7900;DHT22;3995;50.856;4.404;2024-02-15T02:28:15;15.10;79.10
7900;DHT22;3995;50.856;4.404;2024-02-15T02:30:42;15.00;79.00
7900;DHT22;3995;50.856;4.404;2024-02-15T02:33:11;15.00;79.00
7900;DHT22;3995;50.856;4.404;2024-02-15T02:35:44;15.00;79.00
7900;DHT22;3995;50.856;4.404;2024-02-15T02:38:12;15.00;79.00
7900;DHT22;3995;50.856;4.404;2024-02-15T02:40:40;15.00;79.00
7900;DHT22;3995;50.856;4.404;2024-02-15T02:43:09;15.00;79.00
7900;DHT22;3995;50.856;4.404;2024-02-15T02:45:36;15.00;79.00
7900;DHT22;3995;50.856;4.404;2024-02-15T02:48:04;15.00;79.00
7900;DHT22;3995;50.856;4.404;2024-02-15T02:50:32;15.00;78.90
7900;DHT22;3995;50.856;4.404;2024-02-15T02:52:59;15.00;78.90
7900;DHT22;3995;50.856;4.404;2024-02-15T02:55:26;15.00;78.90
7900;DHT22;3995;50.856;4.404;2024-02-15T02:57:54;15.00;78.90
7900;DHT22;3995;50.856;4.404;2024-02-15T03:00:23;15.00;78.80
7900;DHT22;3995;50.856;4.404;2024-02-15T03:02:50;15.10;78.90
7900;DHT22;3995;50.856;4.404;2024-02-15T03:05:17;15.00;78.80
7900;DHT22;3995;50.856;4.404;2024-02-15T03:07:46;15.00;78.80
7900;DHT22;3995;50.856;4.404;2024-02-15T03:10:14;15.10;78.90
7900;DHT22;3995;50.856;4.404;2024-02-15T03:12:41;15.10;78.90
7900;DHT22;3995;50.856;4.404;2024-02-15T03:15:12;15.10;78.90
7900;DHT22;3995;50.856;4.404;2024-02-15T03:17:42;15.00;78.90
7900;DHT22;3995;50.856;4.404;2024-02-15T03:20:11;15.00;78.90
7900;DHT22;3995;50.856;4.404;2024-02-15T03:22:50;15.10;79.10
7900;DHT22;3995;50.856;4.404;2024-02-15T03:25:17;15.00;79.00
7900;DHT22;3995;50.856;4.404;2024-02-15T03:27:44;15.10;79.20
7900;DHT22;3995;50.856;4.404;2024-02-15T03:30:12;15.10;79.10
7900;DHT22;3995;50.856;4.404;2024-02-15T03:32:41;15.00;79.10
7900;DHT22;3995;50.856;4.404;2024-02-15T03:35:08;15.00;79.00
7900;DHT22;3995;50.856;4.404;2024-02-15T03:37:35;15.00;79.10
7900;DHT22;3995;50.856;4.404;2024-02-15T03:40:06;15.00;79.10
7900;DHT22;3995;50.856;4.404;2024-02-15T03:42:34;15.00;79.10
7900;DHT22;3995;50.856;4.404;2024-02-15T03:45:02;15.10;79.30
7900;DHT22;3995;50.856;4.404;2024-02-15T03:47:31;15.00;79.20
7900;DHT22;3995;50.856;4.404;2024-02-15T03:50:00;15.10;79.30
7900;DHT22;3995;50.856;4.404;2024-02-15T03:52:28;15.00;79.20
7900;DHT22;3995;50.856;4.404;2024-02-15T03:54:56;15.00;79.20
7900;DHT22;3995;50.856;4.404;2024-02-15T03:57:24;15.10;79.30
7900;DHT22;3995;50.856;4.404;2024-02-15T03:59:51;15.00;79.20
7900;DHT22;3995;50.856;4.404;2024-02-15T04:02:18;15.10;79.30
7900;DHT22;3995;50.856;4.404;2024-02-15T04:04:45;15.00;79.20
7900;DHT22;3995;50.856;4.404;2024-02-15T04:07:16;15.00;79.20
7900;DHT22;3995;50.856;4.404;2024-02-15T04:09:43;15.10;79.30
7900;DHT22;3995;50.856;4.404;2024-02-15T04:12:11;15.10;79.40
7900;DHT22;3995;50.856;4.404;2024-02-15T04:14:40;15.00;79.30
7900;DHT22;3995;50.856;4.404;2024-02-15T04:17:11;15.00;79.40
7900;DHT22;3995;50.856;4.404;2024-02-15T04:19:39;15.10;79.60
7900;DHT22;3995;50.856;4.404;2024-02-15T04:22:06;15.00;79.60
7900;DHT22;3995;50.856;4.404;2024-02-15T04:24:35;15.00;79.70
7900;DHT22;3995;50.856;4.404;2024-02-15T04:27:05;15.00;79.70
7900;DHT22;3995;50.856;4.404;2024-02-15T04:29:33;15.00;79.70
7900;DHT22;3995;50.856;4.404;2024-02-15T04:32:02;15.00;79.80
7900;DHT22;3995;50.856;4.404;2024-02-15T04:34:29;15.00;79.80
7900;DHT22;3995;50.856;4.404;2024-02-15T04:36:59;15.00;79.90
7900;DHT22;3995;50.856;4.404;2024-02-15T04:39:26;15.00;80.00
7900;DHT22;3995;50.856;4.404;2024-02-15T04:41:57;15.00;80.00
7900;DHT22;3995;50.856;4.404;2024-02-15T04:44:25;15.00;80.10
7900;DHT22;3995;50.856;4.404;2024-02-15T04:46:53;15.00;80.10
7900;DHT22;3995;50.856;4.404;2024-02-15T04:49:20;15.00;80.10
7900;DHT22;3995;50.856;4.404;2024-02-15T04:51:48;15.00;80.10
7900;DHT22;3995;50.856;4.404;2024-02-15T04:54:15;15.00;80.10
7900;DHT22;3995;50.856;4.404;2024-02-15T04:56:43;15.00;80.10
7900;DHT22;3995;50.856;4.404;2024-02-15T04:59:13;15.00;80.00
7900;DHT22;3995;50.856;4.404;2024-02-15T05:01:41;15.00;79.90
7900;DHT22;3995;50.856;4.404;2024-02-15T05:04:09;15.00;79.90
7900;DHT22;3995;50.856;4.404;2024-02-15T05:06:37;15.00;79.80
7900;DHT22;3995;50.856;4.404;2024-02-15T05:09:05;15.00;79.70
7900;DHT22;3995;50.856;4.404;2024-02-15T05:11:33;15.00;79.70
7900;DHT22;3995;50.856;4.404;2024-02-15T05:14:02;14.90;79.40
7900;DHT22;3995;50.856;4.404;2024-02-15T05:16:32;15.00;79.50
7900;DHT22;3995;50.856;4.404;2024-02-15T05:18:59;14.90;79.30
7900;DHT22;3995;50.856;4.404;2024-02-15T05:21:27;15.00;79.30
7900;DHT22;3995;50.856;4.404;2024-02-15T05:23:54;14.90;79.20
7900;DHT22;3995;50.856;4.404;2024-02-15T05:26:23;14.90;79.00
7900;DHT22;3995;50.856;4.404;2024-02-15T05:28:50;14.90;79.00
7900;DHT22;3995;50.856;4.404;2024-02-15T05:31:18;15.00;79.00
7900;DHT22;3995;50.856;4.404;2024-02-15T05:33:48;15.00;78.90
7900;DHT22;3995;50.856;4.404;2024-02-15T05:36:16;15.00;78.80
7900;DHT22;3995;50.856;4.404;2024-02-15T05:38:46;15.00;78.70
7900;DHT22;3995;50.856;4.404;2024-02-15T05:41:14;14.90;78.50
7900;DHT22;3995;50.856;4.404;2024-02-15T05:43:42;15.00;78.50
7900;DHT22;3995;50.856;4.404;2024-02-15T05:46:10;15.00;78.40
7900;DHT22;3995;50.856;4.404;2024-02-15T05:48:39;15.00;78.30
7900;DHT22;3995;50.856;4.404;2024-02-15T05:51:08;15.00;78.20
7900;DHT22;3995;50.856;4.404;2024-02-15T05:53:36;15.00;78.10
7900;DHT22;3995;50.856;4.404;2024-02-15T05:56:04;15.00;78.10
7900;DHT22;3995;50.856;4.404;2024-02-15T05:58:32;15.00;78.10
7900;DHT22;3995;50.856;4.404;2024-02-15T06:01:00;15.10;78.10
7900;DHT22;3995;50.856;4.404;2024-02-15T06:03:28;15.00;78.00
7900;DHT22;3995;50.856;4.404;2024-02-15T06:05:55;15.00;78.50
7900;DHT22;3995;50.856;4.404;2024-02-15T06:08:25;15.10;77.90
7900;DHT22;3995;50.856;4.404;2024-02-15T06:10:53;15.00;77.80
7900;DHT22;3995;50.856;4.404;2024-02-15T06:13:21;15.00;77.80
7900;DHT22;3995;50.856;4.404;2024-02-15T06:15:48;15.10;77.90
7900;DHT22;3995;50.856;4.404;2024-02-15T06:18:18;15.10;77.80
7900;DHT22;3995;50.856;4.404;2024-02-15T06:20:47;15.00;77.70
7900;DHT22;3995;50.856;4.404;2024-02-15T06:23:16;15.10;77.70
7900;DHT22;3995;50.856;4.404;2024-02-15T06:25:45;15.10;77.70
7900;DHT22;3995;50.856;4.404;2024-02-15T06:28:13;15.00;77.50
7900;DHT22;3995;50.856;4.404;2024-02-15T06:31:00;15.10;77.60
7900;DHT22;3995;50.856;4.404;2024-02-15T06:33:45;15.00;77.50
7900;DHT22;3995;50.856;4.404;2024-02-15T06:36:30;15.00;77.50
7900;DHT22;3995;50.856;4.404;2024-02-15T06:39:14;15.00;77.40
7900;DHT22;3995;50.856;4.404;2024-02-15T06:42:01;15.00;77.40
7900;DHT22;3995;50.856;4.404;2024-02-15T06:44:28;15.00;77.30
7900;DHT22;3995;50.856;4.404;2024-02-15T06:46:55;15.00;77.30
7900;DHT22;3995;50.856;4.404;2024-02-15T06:49:23;15.00;77.20
7900;DHT22;3995;50.856;4.404;2024-02-15T06:51:51;15.00;77.10
7900;DHT22;3995;50.856;4.404;2024-02-15T06:54:19;15.00;76.90
7900;DHT22;3995;50.856;4.404;2024-02-15T06:56:46;15.00;76.80
7900;DHT22;3995;50.856;4.404;2024-02-15T06:59:14;15.00;76.70
7900;DHT22;3995;50.856;4.404;2024-02-15T07:01:42;15.00;76.60
7900;DHT22;3995;50.856;4.404;2024-02-15T07:04:09;15.00;76.50
7900;DHT22;3995;50.856;4.404;2024-02-15T07:06:37;15.00;76.50
7900;DHT22;3995;50.856;4.404;2024-02-15T07:09:04;15.00;76.50
7900;DHT22;3995;50.856;4.404;2024-02-15T07:11:32;15.00;76.40
7900;DHT22;3995;50.856;4.404;2024-02-15T07:14:00;15.00;76.40
7900;DHT22;3995;50.856;4.404;2024-02-15T07:16:28;15.00;76.30
7900;DHT22;3995;50.856;4.404;2024-02-15T07:18:56;15.00;76.10
7900;DHT22;3995;50.856;4.404;2024-02-15T07:21:24;15.00;76.20
7900;DHT22;3995;50.856;4.404;2024-02-15T07:23:53;15.10;76.30
7900;DHT22;3995;50.856;4.404;2024-02-15T07:26:21;15.00;76.30
7900;DHT22;3995;50.856;4.404;2024-02-15T07:28:50;15.10;76.40
7900;DHT22;3995;50.856;4.404;2024-02-15T07:31:19;15.10;76.40
7900;DHT22;3995;50.856;4.404;2024-02-15T07:33:49;15.10;76.30
7900;DHT22;3995;50.856;4.404;2024-02-15T07:36:18;15.10;76.20
7900;DHT22;3995;50.856;4.404;2024-02-15T07:38:47;15.00;76.20
7900;DHT22;3995;50.856;4.404;2024-02-15T07:41:15;15.10;76.20
7900;DHT22;3995;50.856;4.404;2024-02-15T07:43:43;15.10;76.20
7900;DHT22;3995;50.856;4.404;2024-02-15T07:46:13;15.10;76.10
7900;DHT22;3995;50.856;4.404;2024-02-15T07:48:42;15.10;76.10
7900;DHT22;3995;50.856;4.404;2024-02-15T07:51:13;15.10;76.00
7900;DHT22;3995;50.856;4.404;2024-02-15T07:53:40;15.10;75.80
7900;DHT22;3995;50.856;4.404;2024-02-15T07:56:08;15.10;75.80
7900;DHT22;3995;50.856;4.404;2024-02-15T07:58:38;15.10;75.70
7900;DHT22;3995;50.856;4.404;2024-02-15T08:01:07;15.10;75.60
7900;DHT22;3995;50.856;4.404;2024-02-15T08:03:35;15.10;75.60
7900;DHT22;3995;50.856;4.404;2024-02-15T08:06:02;15.10;75.60
7900;DHT22;3995;50.856;4.404;2024-02-15T08:08:34;15.10;75.50
7900;DHT22;3995;50.856;4.404;2024-02-15T08:11:02;15.10;75.60
7900;DHT22;3995;50.856;4.404;2024-02-15T08:13:30;15.10;75.60
7900;DHT22;3995;50.856;4.404;2024-02-15T08:15:57;15.10;75.50
7900;DHT22;3995;50.856;4.404;2024-02-15T08:18:24;15.10;75.40
7900;DHT22;3995;50.856;4.404;2024-02-15T08:20:53;15.10;75.30
7900;DHT22;3995;50.856;4.404;2024-02-15T08:23:22;15.10;75.20
7900;DHT22;3995;50.856;4.404;2024-02-15T08:25:51;15.10;75.20
7900;DHT22;3995;50.856;4.404;2024-02-15T08:28:19;15.20;75.20
7900;DHT22;3995;50.856;4.404;2024-02-15T08:30:47;15.10;75.00
7900;DHT22;3995;50.856;4.404;2024-02-15T08:33:14;15.20;75.00
7900;DHT22;3995;50.856;4.404;2024-02-15T08:35:41;15.20;75.00
7900;DHT22;3995;50.856;4.404;2024-02-15T08:38:09;15.20;75.10
7900;DHT22;3995;50.856;4.404;2024-02-15T08:40:36;15.20;75.10
7900;DHT22;3995;50.856;4.404;2024-02-15T08:43:05;15.20;75.10
7900;DHT22;3995;50.856;4.404;2024-02-15T08:45:32;15.20;75.10
7900;DHT22;3995;50.856;4.404;2024-02-15T08:48:01;15.30;75.20
7900;DHT22;3995;50.856;4.404;2024-02-15T08:50:30;15.30;75.10
7900;DHT22;3995;50.856;4.404;2024-02-15T08:52:57;15.30;75.00
7900;DHT22;3995;50.856;4.404;2024-02-15T08:55:24;15.30;75.00
7900;DHT22;3995;50.856;4.404;2024-02-15T08:57:53;15.30;75.00
7900;DHT22;3995;50.856;4.404;2024-02-15T09:00:22;15.30;75.10
7900;DHT22;3995;50.856;4.404;2024-02-15T09:02:52;15.40;75.30
7900;DHT22;3995;50.856;4.404;2024-02-15T09:05:19;15.30;75.30
7900;DHT22;3995;50.856;4.404;2024-02-15T09:07:48;15.30;75.20
7900;DHT22;3995;50.856;4.404;2024-02-15T09:10:16;15.40;75.30
7900;DHT22;3995;50.856;4.404;2024-02-15T09:12:44;15.30;75.30
7900;DHT22;3995;50.856;4.404;2024-02-15T09:15:13;15.30;75.30
7900;DHT22;3995;50.856;4.404;2024-02-15T09:17:42;15.30;75.30
7900;DHT22;3995;50.856;4.404;2024-02-15T09:20:12;15.40;75.40
7900;DHT22;3995;50.856;4.404;2024-02-15T09:22:41;15.40;75.30
7900;DHT22;3995;50.856;4.404;2024-02-15T09:25:09;15.40;75.30
7900;DHT22;3995;50.856;4.404;2024-02-15T09:27:38;15.40;75.40
7900;DHT22;3995;50.856;4.404;2024-02-15T09:30:06;15.40;75.40
7900;DHT22;3995;50.856;4.404;2024-02-15T09:32:35;15.40;75.40
7900;DHT22;3995;50.856;4.404;2024-02-15T09:35:04;15.40;75.40
7900;DHT22;3995;50.856;4.404;2024-02-15T09:37:33;15.50;75.50
7900;DHT22;3995;50.856;4.404;2024-02-15T09:40:00;15.50;75.50
7900;DHT22;3995;50.856;4.404;2024-02-15T09:42:32;15.50;75.90
7900;DHT22;3995;50.856;4.404;2024-02-15T09:45:01;15.50;75.10
7900;DHT22;3995;50.856;4.404;2024-02-15T09:47:34;15.50;75.10
7900;DHT22;3995;50.856;4.404;2024-02-15T09:50:06;15.60;75.20
7900;DHT22;3995;50.856;4.404;2024-02-15T09:52:34;15.60;74.90
7900;DHT22;3995;50.856;4.404;2024-02-15T09:55:03;15.60;75.40
7900;DHT22;3995;50.856;4.404;2024-02-15T09:57:31;15.70;74.70
7900;DHT22;3995;50.856;4.404;2024-02-15T09:59:59;15.70;74.40
7900;DHT22;3995;50.856;4.404;2024-02-15T10:02:26;15.70;74.20
7900;DHT22;3995;50.856;4.404;2024-02-15T10:04:54;15.70;74.00
7900;DHT22;3995;50.856;4.404;2024-02-15T10:07:24;15.80;74.10
7900;DHT22;3995;50.856;4.404;2024-02-15T10:09:52;15.80;74.10
7900;DHT22;3995;50.856;4.404;2024-02-15T10:12:20;15.80;74.00
7900;DHT22;3995;50.856;4.404;2024-02-15T10:14:49;15.80;73.80
7900;DHT22;3995;50.856;4.404;2024-02-15T10:17:19;15.80;73.70
7900;DHT22;3995;50.856;4.404;2024-02-15T10:20:03;15.90;73.70
7900;DHT22;3995;50.856;4.404;2024-02-15T10:22:32;15.90;73.10
7900;DHT22;3995;50.856;4.404;2024-02-15T10:25:12;15.90;73.10
7900;DHT22;3995;50.856;4.404;2024-02-15T10:27:39;15.90;72.80
7900;DHT22;3995;50.856;4.404;2024-02-15T10:30:17;15.90;72.90
7900;DHT22;3995;50.856;4.404;2024-02-15T10:32:45;16.00;72.50
7900;DHT22;3995;50.856;4.404;2024-02-15T10:35:22;15.90;72.50
7900;DHT22;3995;50.856;4.404;2024-02-15T10:38:07;16.00;72.60
7900;DHT22;3995;50.856;4.404;2024-02-15T10:40:35;16.00;72.20
7900;DHT22;3995;50.856;4.404;2024-02-15T10:43:03;16.00;71.90
7900;DHT22;3995;50.856;4.404;2024-02-15T10:45:31;16.10;71.90
7900;DHT22;3995;50.856;4.404;2024-02-15T10:47:59;16.10;71.90
7900;DHT22;3995;50.856;4.404;2024-02-15T10:50:26;16.10;71.90
7900;DHT22;3995;50.856;4.404;2024-02-15T10:52:55;16.20;71.80
7900;DHT22;3995;50.856;4.404;2024-02-15T10:55:36;16.20;71.50
7900;DHT22;3995;50.856;4.404;2024-02-15T10:58:06;16.30;71.00
7900;DHT22;3995;50.856;4.404;2024-02-15T11:00:34;16.20;71.00
7900;DHT22;3995;50.856;4.404;2024-02-15T11:03:04;16.30;71.20
7900;DHT22;3995;50.856;4.404;2024-02-15T11:05:36;16.30;71.00
7900;DHT22;3995;50.856;4.404;2024-02-15T11:08:06;16.30;71.00
7900;DHT22;3995;50.856;4.404;2024-02-15T11:10:36;16.30;70.70
7900;DHT22;3995;50.856;4.404;2024-02-15T11:13:04;16.30;70.30
7900;DHT22;3995;50.856;4.404;2024-02-15T11:15:42;16.30;70.20
7900;DHT22;3995;50.856;4.404;2024-02-15T11:18:44;16.40;70.40
7900;DHT22;3995;50.856;4.404;2024-02-15T11:21:12;16.40;70.40
7900;DHT22;3995;50.856;4.404;2024-02-15T11:23:39;16.40;70.30
7900;DHT22;3995;50.856;4.404;2024-02-15T11:26:42;16.40;70.10
7900;DHT22;3995;50.856;4.404;2024-02-15T11:32:34;16.40;69.70
7900;DHT22;3995;50.856;4.404;2024-02-15T11:35:05;16.40;69.90
7900;DHT22;3995;50.856;4.404;2024-02-15T11:37:56;16.40;70.10
7900;DHT22;3995;50.856;4.404;2024-02-15T11:40:27;16.50;69.40
7900;DHT22;3995;50.856;4.404;2024-02-15T11:42:57;16.40;69.70
7900;DHT22;3995;50.856;4.404;2024-02-15T11:45:25;16.50;69.60
7900;DHT22;3995;50.856;4.404;2024-02-15T11:47:58;16.50;69.80
7900;DHT22;3995;50.856;4.404;2024-02-15T11:50:28;16.50;69.70
7900;DHT22;3995;50.856;4.404;2024-02-15T11:53:04;16.50;69.20
7900;DHT22;3995;50.856;4.404;2024-02-15T11:55:35;16.50;69.20
7900;DHT22;3995;50.856;4.404;2024-02-15T11:58:05;16.50;69.00
7900;DHT22;3995;50.856;4.404;2024-02-15T12:00:47;16.50;68.60
7900;DHT22;3995;50.856;4.404;2024-02-15T12:03:32;16.50;68.60
7900;DHT22;3995;50.856;4.404;2024-02-15T12:06:17;16.50;68.80
7900;DHT22;3995;50.856;4.404;2024-02-15T12:09:02;16.50;68.70
7900;DHT22;3995;50.856;4.404;2024-02-15T12:11:47;16.50;68.60
7900;DHT22;3995;50.856;4.404;2024-02-15T12:14:33;16.50;68.60
7900;DHT22;3995;50.856;4.404;2024-02-15T12:17:17;16.50;68.60
7900;DHT22;3995;50.856;4.404;2024-02-15T12:20:03;16.50;68.70
7900;DHT22;3995;50.856;4.404;2024-02-15T12:22:36;16.50;69.20
7900;DHT22;3995;50.856;4.404;2024-02-15T12:25:07;16.40;69.40
7900;DHT22;3995;50.856;4.404;2024-02-15T12:27:38;16.40;69.10
7900;DHT22;3995;50.856;4.404;2024-02-15T12:30:09;16.40;68.70
7900;DHT22;3995;50.856;4.404;2024-02-15T12:32:39;16.40;68.70
7900;DHT22;3995;50.856;4.404;2024-02-15T12:35:11;16.40;69.10
7900;DHT22;3995;50.856;4.404;2024-02-15T12:37:42;16.40;69.30
7900;DHT22;3995;50.856;4.404;2024-02-15T12:40:11;16.40;69.70
7900;DHT22;3995;50.856;4.404;2024-02-15T12:42:42;16.40;69.10
7900;DHT22;3995;50.856;4.404;2024-02-15T12:45:17;16.40;68.70
7900;DHT22;3995;50.856;4.404;2024-02-15T12:47:48;16.50;68.10
7900;DHT22;3995;50.856;4.404;2024-02-15T12:50:17;16.50;67.90
7900;DHT22;3995;50.856;4.404;2024-02-15T12:52:46;16.50;67.80
7900;DHT22;3995;50.856;4.404;2024-02-15T12:55:16;16.50;67.90
7900;DHT22;3995;50.856;4.404;2024-02-15T12:57:46;16.50;68.20
7900;DHT22;3995;50.856;4.404;2024-02-15T13:00:18;16.50;68.90
7900;DHT22;3995;50.856;4.404;2024-02-15T13:02:47;16.60;67.70
7900;DHT22;3995;50.856;4.404;2024-02-15T13:05:15;16.60;67.50
7900;DHT22;3995;50.856;4.404;2024-02-15T13:07:44;16.60;67.10
7900;DHT22;3995;50.856;4.404;2024-02-15T13:10:11;16.60;66.70
7900;DHT22;3995;50.856;4.404;2024-02-15T13:12:41;16.60;66.70
7900;DHT22;3995;50.856;4.404;2024-02-15T13:15:10;16.60;66.60
7900;DHT22;3995;50.856;4.404;2024-02-15T13:17:43;16.60;67.10
7900;DHT22;3995;50.856;4.404;2024-02-15T13:20:11;16.60;67.60
7900;DHT22;3995;50.856;4.404;2024-02-15T13:22:40;16.60;68.00
7900;DHT22;3995;50.856;4.404;2024-02-15T13:25:09;16.60;68.20
7900;DHT22;3995;50.856;4.404;2024-02-15T13:27:37;16.60;66.70
7900;DHT22;3995;50.856;4.404;2024-02-15T13:30:05;16.60;66.30
7900;DHT22;3995;50.856;4.404;2024-02-15T13:32:35;16.70;66.20
7900;DHT22;3995;50.856;4.404;2024-02-15T13:35:06;16.70;66.20
7900;DHT22;3995;50.856;4.404;2024-02-15T13:37:40;16.70;66.50
7900;DHT22;3995;50.856;4.404;2024-02-15T13:40:10;16.70;65.70
7900;DHT22;3995;50.856;4.404;2024-02-15T13:42:41;16.70;65.90
7900;DHT22;3995;50.856;4.404;2024-02-15T13:45:13;16.70;65.40
7900;DHT22;3995;50.856;4.404;2024-02-15T13:47:41;16.80;65.20
7900;DHT22;3995;50.856;4.404;2024-02-15T13:50:13;16.80;64.80
7900;DHT22;3995;50.856;4.404;2024-02-15T13:52:41;16.80;64.50
7900;DHT22;3995;50.856;4.404;2024-02-15T13:55:11;16.80;64.30
7900;DHT22;3995;50.856;4.404;2024-02-15T13:57:39;16.90;63.90
7900;DHT22;3995;50.856;4.404;2024-02-15T14:00:08;16.90;64.30
7900;DHT22;3995;50.856;4.404;2024-02-15T14:02:39;16.90;64.20
7900;DHT22;3995;50.856;4.404;2024-02-15T14:05:07;16.80;63.90
7900;DHT22;3995;50.856;4.404;2024-02-15T14:07:36;16.80;63.90
7900;DHT22;3995;50.856;4.404;2024-02-15T14:10:05;16.80;63.80
7900;DHT22;3995;50.856;4.404;2024-02-15T14:12:33;16.80;63.50
7900;DHT22;3995;50.856;4.404;2024-02-15T14:15:00;16.80;63.50
7900;DHT22;3995;50.856;4.404;2024-02-15T14:17:27;16.80;64.30
7900;DHT22;3995;50.856;4.404;2024-02-15T14:19:55;16.80;64.90
7900;DHT22;3995;50.856;4.404;2024-02-15T14:22:23;16.80;65.30
7900;DHT22;3995;50.856;4.404;2024-02-15T14:24:55;16.80;65.80
7900;DHT22;3995;50.856;4.404;2024-02-15T14:27:22;16.80;65.80
7900;DHT22;3995;50.856;4.404;2024-02-15T14:29:50;16.70;66.10
7900;DHT22;3995;50.856;4.404;2024-02-15T14:32:31;16.70;65.80
7900;DHT22;3995;50.856;4.404;2024-02-15T14:35:15;16.70;65.80
7900;DHT22;3995;50.856;4.404;2024-02-15T14:37:43;16.70;65.50
7900;DHT22;3995;50.856;4.404;2024-02-15T14:40:12;16.70;65.70
7900;DHT22;3995;50.856;4.404;2024-02-15T14:42:41;16.70;66.30
7900;DHT22;3995;50.856;4.404;2024-02-15T14:45:09;16.70;66.70
7900;DHT22;3995;50.856;4.404;2024-02-15T14:47:36;16.70;66.00
7900;DHT22;3995;50.856;4.404;2024-02-15T14:50:04;16.70;65.90
7900;DHT22;3995;50.856;4.404;2024-02-15T14:52:34;16.70;66.40
7900;DHT22;3995;50.856;4.404;2024-02-15T14:55:02;16.70;66.50
7900;DHT22;3995;50.856;4.404;2024-02-15T14:57:32;16.70;66.00
7900;DHT22;3995;50.856;4.404;2024-02-15T14:59:59;16.70;66.10
7900;DHT22;3995;50.856;4.404;2024-02-15T15:02:27;16.70;66.30
7900;DHT22;3995;50.856;4.404;2024-02-15T15:04:54;16.60;65.80
7900;DHT22;3995;50.856;4.404;2024-02-15T15:07:41;16.60;65.40
7900;DHT22;3995;50.856;4.404;2024-02-15T15:10:25;16.60;65.90
7900;DHT22;3995;50.856;4.404;2024-02-15T15:13:11;16.60;66.50
7900;DHT22;3995;50.856;4.404;2024-02-15T15:15:39;16.60;66.10
7900;DHT22;3995;50.856;4.404;2024-02-15T15:18:06;16.60;66.40
7900;DHT22;3995;50.856;4.404;2024-02-15T15:20:35;16.60;65.90
7900;DHT22;3995;50.856;4.404;2024-02-15T15:23:03;16.60;66.30
7900;DHT22;3995;50.856;4.404;2024-02-15T15:25:32;16.60;67.00
7900;DHT22;3995;50.856;4.404;2024-02-15T15:27:59;16.60;67.40
7900;DHT22;3995;50.856;4.404;2024-02-15T15:30:28;16.60;67.70
7900;DHT22;3995;50.856;4.404;2024-02-15T15:32:56;16.60;68.00
7900;DHT22;3995;50.856;4.404;2024-02-15T15:35:23;16.60;68.10
7900;DHT22;3995;50.856;4.404;2024-02-15T15:37:52;16.50;68.10
7900;DHT22;3995;50.856;4.404;2024-02-15T15:40:19;16.50;68.20
7900;DHT22;3995;50.856;4.404;2024-02-15T15:42:47;16.50;68.30
7900;DHT22;3995;50.856;4.404;2024-02-15T15:45:14;16.50;68.60
7900;DHT22;3995;50.856;4.404;2024-02-15T15:47:43;16.50;68.30
7900;DHT22;3995;50.856;4.404;2024-02-15T15:50:10;16.50;67.60
7900;DHT22;3995;50.856;4.404;2024-02-15T15:52:38;16.50;67.70
7900;DHT22;3995;50.856;4.404;2024-02-15T15:55:07;16.40;67.70
7900;DHT22;3995;50.856;4.404;2024-02-15T15:57:37;16.50;68.00
7900;DHT22;3995;50.856;4.404;2024-02-15T16:00:07;16.50;68.30
7900;DHT22;3995;50.856;4.404;2024-02-15T16:02:39;16.40;68.50
7900;DHT22;3995;50.856;4.404;2024-02-15T16:05:09;16.40;68.30
7900;DHT22;3995;50.856;4.404;2024-02-15T16:07:37;16.40;67.90
7900;DHT22;3995;50.856;4.404;2024-02-15T16:10:07;16.40;67.70
7900;DHT22;3995;50.856;4.404;2024-02-15T16:12:36;16.40;68.00
7900;DHT22;3995;50.856;4.404;2024-02-15T16:15:04;16.40;67.70
7900;DHT22;3995;50.856;4.404;2024-02-15T16:17:33;16.40;67.80
7900;DHT22;3995;50.856;4.404;2024-02-15T16:20:01;16.40;68.10
7900;DHT22;3995;50.856;4.404;2024-02-15T16:22:32;16.40;68.40